createdAt,value
2018-05-15T00:02:07.980Z,64.32
2018-05-15T00:04:35.660Z,64.86
2018-05-15T00:07:04.111Z,65.29
2018-05-15T00:09:31.659Z,64.87
2018-05-15T00:11:59.224Z,64.73
2018-05-15T00:14:27.573Z,64.31
2018-05-15T00:16:55.680Z,64.30
2018-05-15T00:19:24.033Z,64.15
2018-05-15T00:21:51.582Z,64.26
2018-05-15T00:24:19.154Z,64.23
2018-05-15T00:26:46.723Z,64.69
2018-05-15T00:29:15.156Z,64.21
2018-05-15T00:31:42.843Z,63.74
2018-05-15T00:34:10.932Z,64.48
2018-05-15T00:36:38.807Z,64.55
2018-05-15T00:39:06.364Z,64.35
2018-05-15T00:41:34.688Z,64.66
2018-05-15T00:44:02.249Z,64.78
2018-05-15T00:46:29.803Z,64.93
2018-05-15T00:48:58.074Z,65.19
2018-05-15T00:51:25.636Z,65.73
2018-05-15T00:53:53.194Z,65.48
2018-05-15T00:56:20.800Z,65.56
2018-05-15T00:58:48.389Z,65.44
2018-05-15T01:01:16.354Z,65.74
2018-05-15T01:03:44.740Z,66.30
2018-05-15T01:06:13.514Z,67.09
2018-05-15T01:08:42.394Z,66.84
2018-05-15T01:11:10.054Z,66.25
2018-05-15T01:13:37.643Z,66.94
2018-05-15T01:16:05.932Z,66.57
2018-05-15T01:18:34.217Z,66.64
2018-05-15T01:21:01.771Z,66.90
2018-05-15T01:23:29.342Z,66.59
2018-05-15T01:25:56.932Z,66.54
2018-05-15T01:28:24.505Z,66.63
2018-05-15T01:30:52.803Z,66.67
2018-05-15T01:33:21.251Z,66.65
2018-05-15T01:35:48.803Z,66.82
2018-05-15T01:38:16.354Z,66.89
2018-05-15T01:40:44.410Z,67.43
2018-05-15T01:43:12.004Z,67.49
2018-05-15T01:45:40.167Z,68.44
2018-05-15T01:48:09.092Z,68.50
2018-05-15T01:50:37.222Z,68.26
2018-05-15T01:53:04.792Z,68.48
2018-05-15T01:55:32.340Z,68.38
2018-05-15T01:57:59.961Z,68.16
2018-05-15T02:00:27.506Z,68.18
2018-05-15T02:02:56.064Z,68.63
2018-05-15T02:05:24.529Z,68.38
2018-05-15T02:07:53.235Z,68.68
2018-05-15T02:10:20.783Z,68.91
2018-05-15T02:12:48.333Z,68.84
2018-05-15T02:15:16.439Z,69.18
2018-05-15T02:17:44.499Z,69.02
2018-05-15T02:20:12.136Z,69.26
2018-05-15T02:22:40.649Z,69.73
2018-05-15T02:25:08.509Z,69.43
2018-05-15T02:27:36.051Z,69.57
2018-05-15T02:30:03.662Z,69.46
2018-05-15T02:32:31.257Z,69.40
2018-05-15T02:34:59.495Z,69.72
2018-05-15T02:37:27.730Z,69.40
2018-05-15T02:39:55.287Z,69.65
2018-05-15T02:42:22.839Z,69.83
2018-05-15T02:44:50.452Z,69.83
2018-05-15T02:47:18.725Z,70.02
2018-05-15T02:49:47.012Z,69.29
2018-05-15T02:52:14.699Z,69.01
2018-05-15T02:54:42.251Z,68.89
2018-05-15T02:57:10.248Z,68.40
2018-05-15T02:59:37.960Z,67.45
2018-05-15T03:02:06.779Z,66.51
2018-05-15T03:04:34.321Z,65.59
2018-05-15T03:07:02.563Z,64.78
2018-05-15T03:09:30.096Z,63.83
2018-05-15T03:11:57.636Z,62.41
2018-05-15T03:14:25.680Z,61.51
2018-05-15T03:16:53.903Z,60.70
2018-05-15T03:19:22.383Z,59.42
2018-05-15T03:21:49.938Z,58.11
2018-05-15T03:24:17.465Z,57.08
2018-05-15T03:26:45.048Z,56.52
2018-05-15T03:29:12.621Z,55.34
2018-05-15T03:31:40.231Z,55.10
2018-05-15T03:34:08.615Z,54.41
2018-05-15T03:36:37.076Z,52.85
2018-05-15T03:39:04.650Z,52.64
2018-05-15T03:41:32.190Z,52.20
2018-05-15T03:43:59.774Z,51.43
2018-05-15T03:46:27.314Z,50.65
2018-05-15T03:48:54.976Z,50.20
2018-05-15T03:51:23.308Z,49.48
2018-05-15T03:53:50.843Z,49.66
2018-05-15T03:56:18.418Z,49.31
2018-05-15T03:58:45.987Z,49.38
2018-05-15T04:01:25.844Z,49.39
2018-05-15T04:04:06.466Z,50.23
2018-05-15T04:06:58.924Z,51.18
2018-05-15T04:09:26.508Z,52.08
2018-05-15T04:11:54.056Z,52.65
2018-05-15T04:14:23.034Z,53.72
2018-05-15T04:16:50.565Z,55.08
2018-05-15T04:19:19.101Z,55.09
2018-05-15T04:21:46.662Z,56.51
2018-05-15T04:24:14.198Z,57.10
2018-05-15T04:26:41.760Z,57.67
2018-05-15T04:29:09.566Z,58.49
2018-05-15T04:31:37.514Z,58.75
2018-05-15T04:34:05.495Z,58.72
2018-05-15T04:36:33.800Z,58.96
2018-05-15T04:39:01.402Z,58.72
2018-05-15T04:41:28.961Z,59.21
2018-05-15T04:43:56.610Z,60.03
2018-05-15T04:46:24.108Z,59.50
2018-05-15T04:48:51.655Z,60.03
2018-05-15T04:51:19.813Z,60.43
2018-05-15T04:53:47.367Z,60.42
2018-05-15T04:56:14.898Z,60.20
2018-05-15T04:58:42.479Z,61.01
2018-05-15T05:01:10.212Z,61.08
2018-05-15T05:03:38.470Z,61.31
2018-05-15T05:06:06.768Z,60.84
2018-05-15T05:08:34.897Z,60.21
2018-05-15T05:11:02.464Z,60.43
2018-05-15T05:13:30.016Z,60.84
2018-05-15T05:15:58.209Z,60.62
2018-05-15T05:18:26.191Z,60.92
2018-05-15T05:20:53.728Z,60.44
2018-05-15T05:23:21.265Z,61.22
2018-05-15T05:25:48.850Z,60.64
2018-05-15T05:28:16.386Z,60.47
2018-05-15T05:30:44.459Z,60.52
2018-05-15T05:33:12.808Z,59.91
2018-05-15T05:35:40.431Z,60.31
2018-05-15T05:38:08.935Z,60.00
2018-05-15T05:40:36.474Z,59.34
2018-05-15T05:43:04.069Z,58.92
2018-05-15T05:45:31.652Z,57.81
2018-05-15T05:47:59.218Z,58.22
2018-05-15T05:50:27.489Z,56.80
2018-05-15T05:52:55.103Z,56.20
2018-05-15T05:55:22.653Z,56.12
2018-05-15T05:57:50.220Z,55.94
2018-05-15T06:00:17.759Z,55.71
2018-05-15T06:02:45.895Z,55.22
2018-05-15T06:05:13.950Z,55.25
2018-05-15T06:07:42.193Z,55.22
2018-05-15T06:10:09.983Z,55.27
2018-05-15T06:12:37.658Z,55.74
2018-05-15T06:15:06.168Z,54.90
2018-05-15T06:17:34.587Z,54.72
2018-05-15T06:20:02.147Z,52.59
2018-05-15T06:22:29.714Z,51.75
2018-05-15T06:24:57.287Z,48.49
2018-05-15T06:27:25.443Z,49.71
2018-05-15T06:29:52.991Z,47.44
2018-05-15T06:32:20.612Z,48.35
2018-05-15T06:34:48.881Z,47.34
2018-05-15T06:37:16.955Z,46.04
2018-05-15T06:39:44.489Z,45.58
2018-05-15T06:42:12.021Z,46.19
2018-05-15T06:44:40.610Z,46.45
2018-05-15T06:47:08.766Z,44.58
2018-05-15T06:49:36.837Z,45.42
2018-05-15T06:52:04.412Z,45.03
2018-05-15T06:54:31.940Z,43.87
2018-05-15T06:56:59.517Z,44.46
2018-05-15T06:59:27.045Z,44.55
2018-05-15T07:01:55.320Z,42.66
2018-05-15T07:04:22.793Z,42.36
2018-05-15T07:06:51.385Z,42.58
2018-05-15T07:09:18.921Z,40.97
2018-05-15T07:11:46.463Z,40.85
2018-05-15T07:14:14.784Z,39.58
2018-05-15T07:16:42.318Z,39.61
2018-05-15T07:19:11.623Z,39.44
2018-05-15T07:21:39.348Z,40.06
2018-05-15T07:24:06.910Z,39.74
2018-05-15T07:26:35.199Z,39.29
2018-05-15T07:29:02.741Z,39.60
2018-05-15T07:31:30.278Z,39.31
2018-05-15T07:33:58.289Z,39.89
2018-05-15T07:36:25.815Z,38.84
2018-05-15T07:38:53.799Z,38.78
2018-05-15T07:41:21.359Z,38.17
2018-05-15T07:43:48.896Z,38.05
2018-05-15T07:46:16.486Z,37.79
2018-05-15T07:48:44.012Z,37.49
2018-05-15T07:51:12.076Z,38.01
2018-05-15T07:53:39.837Z,37.01
2018-05-15T07:56:07.620Z,37.53
2018-05-15T07:58:35.226Z,36.98
2018-05-15T08:01:03.535Z,37.46
2018-05-15T08:03:31.982Z,35.94
2018-05-15T08:06:00.315Z,35.19
2018-05-15T08:08:28.534Z,36.03
2018-05-15T08:10:56.090Z,36.06
2018-05-15T08:13:23.630Z,34.10
2018-05-15T08:15:51.768Z,34.76
2018-05-15T08:18:20.020Z,34.71
2018-05-15T08:20:47.546Z,34.38
2018-05-15T08:23:15.655Z,34.90
2018-05-15T08:25:43.188Z,35.36
2018-05-15T08:28:10.726Z,35.18
2018-05-15T08:30:38.564Z,35.81
2018-05-15T08:33:06.947Z,35.99
2018-05-15T08:35:34.492Z,35.99
2018-05-15T08:38:02.853Z,35.39
2018-05-15T08:40:30.392Z,35.45
2018-05-15T08:42:57.931Z,36.19
2018-05-15T08:45:25.601Z,35.71
2018-05-15T08:47:53.075Z,35.06
2018-05-15T08:50:21.424Z,34.91
2018-05-15T08:52:48.987Z,35.37
2018-05-15T08:55:16.519Z,35.92
2018-05-15T08:57:44.106Z,35.40
2018-05-15T09:00:11.653Z,36.06
2018-05-15T09:02:39.946Z,35.70
2018-05-15T09:05:08.590Z,35.43
2018-05-15T09:07:36.589Z,35.57
2018-05-15T09:10:04.147Z,33.85
2018-05-15T09:12:31.683Z,34.65
2018-05-15T09:14:59.676Z,33.30
2018-05-15T09:17:28.166Z,33.89
2018-05-15T09:19:55.710Z,32.47
2018-05-15T09:22:23.690Z,33.21
2018-05-15T09:24:51.223Z,32.51
2018-05-15T09:27:18.808Z,32.52
2018-05-15T09:29:46.412Z,32.62
2018-05-15T09:32:13.957Z,33.26
2018-05-15T09:34:42.314Z,32.56
2018-05-15T09:37:10.879Z,32.38
2018-05-15T09:39:38.819Z,33.37
2018-05-15T09:42:06.540Z,33.26
2018-05-15T09:44:34.115Z,31.22
2018-05-15T09:47:02.262Z,32.96
2018-05-15T09:49:30.598Z,32.28
2018-05-15T09:51:58.239Z,31.31
2018-05-15T09:54:25.773Z,32.28
2018-05-15T09:56:53.342Z,33.03
2018-05-15T09:59:20.903Z,32.37
2018-05-15T10:01:49.182Z,31.29
2018-05-15T10:04:16.728Z,30.85
2018-05-15T10:06:44.902Z,31.15
2018-05-15T10:09:12.443Z,31.10
2018-05-15T10:11:40.017Z,30.72
2018-05-15T10:14:08.670Z,30.98
2018-05-15T10:16:36.255Z,31.36
2018-05-15T10:19:04.311Z,29.73
2018-05-15T10:21:31.843Z,30.00
2018-05-15T10:23:59.389Z,30.08
2018-05-15T10:26:27.028Z,29.92
2018-05-15T10:28:54.807Z,32.04
2018-05-15T10:31:22.390Z,30.89
2018-05-15T10:33:50.827Z,30.46
2018-05-15T10:36:18.414Z,29.66
2018-05-15T10:38:46.575Z,29.04
2018-05-15T10:41:14.113Z,29.91
2018-05-15T10:43:41.647Z,28.76
2018-05-15T10:46:09.615Z,29.81
2018-05-15T10:48:37.145Z,29.62
2018-05-15T10:51:05.450Z,28.86
2018-05-15T10:53:32.987Z,28.30
2018-05-15T10:56:00.593Z,29.15
2018-05-15T10:58:28.188Z,28.57
2018-05-15T11:00:55.870Z,26.57
2018-05-15T11:03:24.091Z,27.74
2018-05-15T11:05:52.343Z,28.35
2018-05-15T11:08:20.353Z,28.13
2018-05-15T11:10:47.880Z,28.37
2018-05-15T11:13:15.417Z,27.44
2018-05-15T11:15:43.338Z,26.69
2018-05-15T11:18:25.028Z,26.19
2018-05-15T11:21:03.966Z,26.49
2018-05-15T11:23:43.336Z,27.61
2018-05-15T11:26:10.870Z,27.11
2018-05-15T11:28:38.919Z,27.47
2018-05-15T11:31:06.840Z,28.02
2018-05-15T11:33:35.216Z,27.57
2018-05-15T11:36:02.903Z,27.61
2018-05-15T11:38:30.650Z,27.00
2018-05-15T11:40:58.190Z,26.66
2018-05-15T11:43:25.794Z,26.60
2018-05-15T11:45:53.383Z,26.22
2018-05-15T11:48:21.483Z,26.73
2018-05-15T11:50:50.177Z,25.71
2018-05-15T11:53:17.512Z,25.93
2018-05-15T11:55:44.469Z,25.02
2018-05-15T11:58:12.105Z,26.11
2018-05-15T12:00:40.377Z,25.30
2018-05-15T12:03:08.580Z,25.89
2018-05-15T12:05:36.929Z,26.25
2018-05-15T12:08:05.029Z,25.53
2018-05-15T12:10:32.567Z,25.96
2018-05-15T12:13:00.743Z,26.38
2018-05-15T12:15:28.807Z,27.31
2018-05-15T12:17:57.468Z,26.89
2018-05-15T12:20:24.999Z,26.62
2018-05-15T12:22:52.559Z,27.22
2018-05-15T12:25:20.123Z,26.84
2018-05-15T12:27:47.655Z,26.37
2018-05-15T12:30:15.191Z,26.56
2018-05-15T12:32:42.761Z,26.40
2018-05-15T12:35:10.769Z,26.06
2018-05-15T12:37:39.956Z,25.62
2018-05-15T12:40:07.633Z,25.33
2018-05-15T12:42:35.205Z,24.54
2018-05-15T12:45:03.365Z,24.82
2018-05-15T12:47:30.918Z,25.49
2018-05-15T12:49:59.456Z,25.56
2018-05-15T12:52:26.992Z,25.42
2018-05-15T12:54:54.552Z,25.20
2018-05-15T12:57:22.119Z,25.03
2018-05-15T12:59:49.665Z,24.43
2018-05-15T13:02:17.762Z,25.50
2018-05-15T13:04:45.992Z,25.13
2018-05-15T13:07:14.642Z,24.37
2018-05-15T13:09:42.168Z,24.88
2018-05-15T13:12:10.640Z,24.78
2018-05-15T13:14:38.771Z,24.46
2018-05-15T13:17:07.153Z,23.69
2018-05-15T13:19:35.256Z,24.49
2018-05-15T13:22:02.795Z,24.19
2018-05-15T13:24:30.330Z,24.40
2018-05-15T13:26:57.917Z,24.41
2018-05-15T13:29:25.449Z,24.29
2018-05-15T13:31:52.996Z,23.96
2018-05-15T13:34:21.288Z,24.24
2018-05-15T13:36:49.483Z,24.59
2018-05-15T13:39:17.068Z,24.76
2018-05-15T13:41:44.600Z,23.89
2018-05-15T13:44:12.954Z,24.43
2018-05-15T13:46:40.487Z,24.73
2018-05-15T13:49:08.345Z,24.61
2018-05-15T13:51:35.944Z,24.43
2018-05-15T13:54:03.494Z,24.33
2018-05-15T13:56:31.036Z,23.96
2018-05-15T13:58:59.509Z,23.89
2018-05-15T14:01:27.071Z,24.09
2018-05-15T14:03:55.454Z,24.33
2018-05-15T14:06:23.677Z,24.45
2018-05-15T14:08:52.208Z,25.05
2018-05-15T14:11:19.783Z,24.37
2018-05-15T14:13:47.308Z,23.45
2018-05-15T14:16:15.328Z,23.49
2018-05-15T14:18:43.243Z,24.12
2018-05-15T14:21:10.784Z,24.81
2018-05-15T14:23:38.533Z,23.84
2018-05-15T14:26:06.129Z,23.33
2018-05-15T14:28:33.689Z,23.05
2018-05-15T14:31:01.239Z,23.75
2018-05-15T14:33:29.609Z,23.25
2018-05-15T14:35:57.152Z,23.92
2018-05-15T14:38:25.410Z,23.62
2018-05-15T14:40:52.957Z,23.06
2018-05-15T14:43:21.605Z,23.15
2018-05-15T14:45:49.658Z,22.52
2018-05-15T14:48:17.183Z,23.47
2018-05-15T14:51:05.503Z,23.79
2018-05-15T14:53:33.174Z,24.01
2018-05-15T14:56:00.872Z,23.75
2018-05-15T14:58:28.471Z,23.59
2018-05-15T15:00:56.788Z,23.25
2018-05-15T15:03:25.239Z,23.41
2018-05-15T15:05:53.344Z,22.72
2018-05-15T15:08:21.568Z,22.99
2018-05-15T15:10:49.130Z,23.50
2018-05-15T15:13:16.690Z,23.47
2018-05-15T15:15:44.730Z,23.05
2018-05-15T15:18:13.173Z,22.70
2018-05-15T15:20:40.801Z,22.94
2018-05-15T15:23:09.455Z,22.22
2018-05-15T15:25:37.041Z,22.03
2018-05-15T15:28:05.118Z,22.16
2018-05-15T15:30:32.672Z,20.32
2018-05-15T15:33:01.331Z,20.30
2018-05-15T15:35:28.918Z,20.72
2018-05-15T15:37:57.165Z,20.28
2018-05-15T15:40:25.777Z,19.67
2018-05-15T15:42:53.337Z,16.46
2018-05-15T15:45:20.910Z,16.66
2018-05-15T15:47:48.435Z,16.74
2018-05-15T15:50:16.089Z,16.91
2018-05-15T15:52:43.780Z,16.03
2018-05-15T15:55:11.425Z,16.27
2018-05-15T15:57:40.384Z,16.16
2018-05-15T16:00:08.477Z,15.94
2018-05-15T16:02:38.731Z,16.14
2018-05-15T16:05:06.928Z,16.33
2018-05-15T16:07:35.267Z,16.72
2018-05-15T16:10:02.882Z,16.37
2018-05-15T16:12:30.369Z,17.21
2018-05-15T16:14:58.479Z,17.25
2018-05-15T16:17:26.477Z,15.15
2018-05-15T16:19:54.004Z,16.05
2018-05-15T16:22:22.347Z,16.16
2018-05-15T16:24:50.719Z,16.28
2018-05-15T16:27:18.264Z,15.86
2018-05-15T16:29:45.880Z,15.81
2018-05-15T16:32:13.436Z,17.25
2018-05-15T16:34:41.467Z,18.12
2018-05-15T16:37:09.964Z,18.15
2018-05-15T16:39:37.496Z,19.16
2018-05-15T16:42:05.071Z,18.64
2018-05-15T16:44:32.649Z,19.44
2018-05-15T16:47:00.930Z,20.26
2018-05-15T16:49:28.484Z,19.94
2018-05-15T16:51:56.095Z,20.11
2018-05-15T16:54:23.667Z,20.72
2018-05-15T16:56:51.283Z,21.04
2018-05-15T16:59:18.826Z,21.47
2018-05-15T17:01:47.371Z,21.55
2018-05-15T17:04:14.907Z,20.47
2018-05-15T17:06:43.088Z,20.65
2018-05-15T17:09:11.197Z,20.13
2018-05-15T17:11:39.051Z,19.46
2018-05-15T17:14:07.427Z,19.07
2018-05-15T17:16:34.954Z,18.42
2018-05-15T17:19:02.927Z,18.32
2018-05-15T17:21:31.080Z,18.24
2018-05-15T17:23:58.651Z,18.08
2018-05-15T17:26:26.194Z,18.29
2018-05-15T17:28:54.445Z,18.33
2018-05-15T17:31:22.033Z,19.16
2018-05-15T17:33:50.204Z,20.35
2018-05-15T17:36:17.764Z,20.81
2018-05-15T17:38:46.020Z,21.05
2018-05-15T17:41:13.559Z,22.51
2018-05-15T17:43:41.099Z,23.64
2018-05-15T17:46:08.694Z,24.63
2018-05-15T17:48:36.232Z,25.30
2018-05-15T17:51:03.892Z,26.01
2018-05-15T17:53:31.472Z,26.77
2018-05-15T17:55:59.022Z,27.31
2018-05-15T17:58:26.559Z,27.65
2018-05-15T18:00:54.647Z,28.57
2018-05-15T18:03:22.867Z,28.58
2018-05-15T18:05:51.039Z,27.57
2018-05-15T18:08:19.252Z,28.94
2018-05-15T18:10:46.799Z,29.74
2018-05-15T18:13:14.333Z,30.48
2018-05-15T18:15:42.443Z,30.14
2018-05-15T18:18:11.075Z,30.75
2018-05-15T18:20:38.606Z,31.52
2018-05-15T18:23:07.223Z,32.19
2018-05-15T18:25:34.771Z,32.78
2018-05-15T18:28:02.428Z,33.28
2018-05-15T18:30:30.531Z,33.60
2018-05-15T18:32:59.973Z,34.15
2018-05-15T18:35:28.134Z,34.60
2018-05-15T18:37:56.456Z,36.61
2018-05-15T18:40:24.005Z,38.04
2018-05-15T18:42:51.592Z,38.21
2018-05-15T18:45:19.198Z,38.36
2018-05-15T18:47:46.721Z,37.63
2018-05-15T18:50:14.377Z,38.06
2018-05-15T18:52:41.943Z,38.67
2018-05-15T18:55:09.672Z,40.28
2018-05-15T18:57:37.759Z,34.08
2018-05-15T19:00:05.456Z,37.22
2018-05-15T19:02:33.435Z,37.25
2018-05-15T19:05:01.580Z,38.98
2018-05-15T19:07:29.751Z,38.11
2018-05-15T19:09:57.448Z,38.85
2018-05-15T19:12:24.976Z,39.86
2018-05-15T19:14:52.960Z,38.84
2018-05-15T19:17:21.535Z,40.64
2018-05-15T19:19:49.075Z,40.00
2018-05-15T19:22:17.353Z,40.09
2018-05-15T19:24:44.899Z,38.78
2018-05-15T19:27:12.509Z,39.99
2018-05-15T19:29:40.706Z,40.41
2018-05-15T19:32:23.155Z,40.87
2018-05-15T19:34:55.942Z,41.01
2018-05-15T19:37:24.231Z,41.25
2018-05-15T19:39:52.595Z,42.64
2018-05-15T19:42:20.167Z,41.94
2018-05-15T19:44:47.791Z,42.26
2018-05-15T19:47:15.350Z,42.54
2018-05-15T19:49:42.899Z,42.57
2018-05-15T19:52:11.070Z,43.77
2018-05-15T19:54:39.441Z,44.06
2018-05-15T19:57:07.162Z,43.80
2018-05-15T19:59:34.711Z,43.59
2018-05-15T20:02:02.990Z,44.74
2018-05-15T20:04:30.511Z,45.15
2018-05-15T20:06:58.823Z,45.95
2018-05-15T20:09:26.353Z,46.39
2018-05-15T20:11:53.891Z,46.35
2018-05-15T20:14:22.341Z,46.26
2018-05-15T20:16:50.693Z,47.29
2018-05-15T20:19:18.859Z,47.43
2018-05-15T20:21:47.084Z,47.38
2018-05-15T20:24:14.630Z,47.60
2018-05-15T20:26:42.936Z,48.18
2018-05-15T20:29:11.123Z,48.64
2018-05-15T20:31:38.666Z,48.36
2018-05-15T20:34:06.852Z,49.23
2018-05-15T20:36:35.388Z,49.46
2018-05-15T20:39:02.960Z,50.12
2018-05-15T20:41:30.503Z,49.79
2018-05-15T20:43:58.070Z,51.05
2018-05-15T20:46:26.407Z,50.23
2018-05-15T20:48:53.949Z,51.20
2018-05-15T20:51:22.383Z,51.50
2018-05-15T20:53:49.967Z,51.93
2018-05-15T20:56:17.500Z,51.44
2018-05-15T20:58:45.067Z,51.73
2018-05-15T21:01:12.606Z,51.71
2018-05-15T21:03:40.951Z,50.74
2018-05-15T21:06:09.310Z,51.29
2018-05-15T21:08:37.964Z,52.21
2018-05-15T21:11:05.519Z,52.16
2018-05-15T21:13:33.051Z,52.17
2018-05-15T21:16:01.263Z,52.21
2018-05-15T21:18:29.346Z,52.82
2018-05-15T21:20:57.124Z,52.99
2018-05-15T21:23:25.011Z,53.19
2018-05-15T21:25:52.696Z,53.99
2018-05-15T21:28:20.266Z,54.50
2018-05-15T21:30:47.793Z,55.08
2018-05-15T21:33:15.918Z,54.83
2018-05-15T21:35:43.459Z,54.35
2018-05-15T21:38:12.162Z,54.08
2018-05-15T21:40:39.727Z,54.67
2018-05-15T21:43:07.274Z,54.92
2018-05-15T21:45:34.860Z,55.51
2018-05-15T21:48:02.451Z,55.79
2018-05-15T21:50:30.327Z,56.35
2018-05-15T21:52:57.876Z,56.99
2018-05-15T21:55:25.495Z,57.74
2018-05-15T21:57:53.015Z,57.17
2018-05-15T22:00:21.287Z,56.92
2018-05-15T22:02:49.399Z,57.04
2018-05-15T22:05:17.564Z,57.39
2018-05-15T22:07:45.883Z,57.12
2018-05-15T22:10:13.423Z,57.44
2018-05-15T22:12:52.671Z,57.68
2018-05-15T22:15:34.916Z,57.87
2018-05-15T22:18:14.776Z,57.49
2018-05-15T22:20:55.504Z,57.87
2018-05-15T22:23:23.213Z,57.61
2018-05-15T22:25:50.831Z,58.19
2018-05-15T22:28:18.381Z,58.04
2018-05-15T22:30:45.943Z,59.10
2018-05-15T22:33:14.292Z,59.71
2018-05-15T22:35:42.535Z,58.71
2018-05-15T22:38:10.978Z,58.86
2018-05-15T22:40:38.505Z,59.06
2018-05-15T22:43:06.051Z,59.85
2018-05-15T22:45:34.448Z,59.37
2018-05-15T22:48:02.490Z,59.81
2018-05-15T22:50:30.019Z,59.98
2018-05-15T22:52:58.566Z,60.04
2018-05-15T22:55:26.137Z,60.41
2018-05-15T22:57:53.673Z,60.84
2018-05-15T23:00:21.215Z,60.47
2018-05-15T23:02:49.420Z,60.66
2018-05-15T23:05:17.875Z,60.40
2018-05-15T23:07:45.776Z,60.80
2018-05-15T23:10:13.318Z,61.35
2018-05-15T23:12:41.806Z,62.26
2018-05-15T23:15:10.077Z,62.63
2018-05-15T23:17:38.639Z,61.92
2018-05-15T23:20:06.190Z,62.85
2018-05-15T23:22:42.511Z,62.69
2018-05-15T23:25:10.128Z,62.79
2018-05-15T23:27:37.675Z,63.26
2018-05-15T23:30:05.274Z,63.02
2018-05-15T23:32:32.805Z,63.33
2018-05-15T23:35:01.106Z,64.45
2018-05-15T23:37:29.471Z,64.23
2018-05-15T23:39:57.004Z,63.77
2018-05-15T23:42:24.563Z,64.31
2018-05-15T23:44:52.952Z,63.57
2018-05-15T23:47:20.500Z,64.47
2018-05-15T23:49:48.023Z,63.88
2018-05-15T23:52:15.587Z,64.38
2018-05-15T23:54:43.123Z,64.42
2018-05-15T23:57:10.778Z,64.19
2018-05-15T23:59:38.348Z,64.37
